This is the latest recevied weather packets stored in our database for station/object IZ1UKX-13. If no packets are shown the sender has not sent any weather packets the latest 10 day(s).
| Time | Temp. | Humidity | Pressure | Rain* | Wind** | Luminosity | Snow |
|---|---|---|---|---|---|---|---|
| 1777714130 | 23.33° C | 33% | 1022.3 hPa | 0 mm | - | 0 W/m² | - |
| 1777713830 | 23.33° C | 32% | 1022.7 hPa | 0 mm | - | 0 W/m² | - |
| 1777713530 | 23.33° C | 33% | 1022.7 hPa | 0 mm | - | 0 W/m² | - |
| 1777713230 | 22.78° C | 32% | 1023.8 hPa | 0 mm | - | 0 W/m² | - |
| 1777713206 | 22.78° C | 32% | 1022.7 hPa | 0 mm | - | 0 W/m² | - |
| 1777713181 | 22.78° C | 33% | 1022.7 hPa | 0 mm | - | 0 W/m² | - |
| 1777712880 | 22.22° C | 32% | 1022.7 hPa | 0 mm | - | 0 W/m² | - |
| 1777712580 | 22.78° C | 32% | 1022.7 hPa | 0 mm | - | 0 W/m² | - |
| 1777712281 | 22.22° C | 32% | 1022.7 hPa | 0 mm | - | 0 W/m² | - |
| 1777711981 | 22.22° C | 31% | 1022.7 hPa | 0 mm | - | 0 W/m² | - |
| 1777711681 | 22.22° C | 32% | 1022.7 hPa | 0 mm | - | 0 W/m² | - |
| 1777711381 | 22.22° C | 33% | 1022.7 hPa | 0 mm | - | 0 W/m² | - |
| 1777711081 | 22.22° C | 32% | 1022.7 hPa | 0 mm | - | 0 W/m² | - |
| 1777710776 | 22.22° C | 32% | 1022.7 hPa | 0 mm | - | 0 W/m² | - |
| 1777710477 | 21.67° C | 33% | 1022.7 hPa | 0 mm | - | 0 W/m² | - |
| 1777710177 | 22.78° C | 32% | 1022.7 hPa | 0 mm | - | 0 W/m² | - |
| 1777709877 | 21.67° C | 35% | 1022.7 hPa | 0 mm | - | 0 W/m² | - |
| 1777709576 | 21.11° C | 35% | 1022.7 hPa | 0 mm | - | 0 W/m² | - |
| 1777709277 | 21.67° C | 32% | 1022.7 hPa | 0 mm | - | 0 W/m² | - |
| 1777708976 | 21.67° C | 31% | 1022.7 hPa | 0 mm | - | 0 W/m² | - |
| 1777708676 | 21.11° C | 35% | 1022.7 hPa | 0 mm | - | 0 W/m² | - |
| 1777708376 | 21.11° C | 38% | 1022.7 hPa | 0 mm | - | 0 W/m² | - |
| 1777708076 | 20.56° C | 41% | 1023.2 hPa | 0 mm | - | 0 W/m² | - |
| 1777707776 | 18.89° C | 44% | 1023.2 hPa | 0 mm | - | 0 W/m² | - |
| 1777707477 | 18.89° C | 45% | 1023.2 hPa | 0 mm | - | 0 W/m² | - |
* Rain latest hour (hover to see other rain measurements)
** Current wind speed in m/s (hover to see current wind gust speed)